• Join FlightAware (Why Join?)
  • Login
  • US Flag 
09:04AM EDT


 

Airport Tracker/Info


-or-


 

Live Flight TrackerFlight Track Log ✈ UAL5900 ✈ 25-Apr-2013 ✈ KORD - KBNA

Flight Track Log - Related Links

Times and Time Zones

All times are in EDT time to prevent confusion due to time zone crossing. See the UAL5900 flight status page for this flight to view local times or setup timezone preferences in your user account.

Time Position Orientation Groundspeed Altitude Reporting Facility
EDT Latitude Longitude Course Direction KTS MPH feet Rate Location/Type
07:00PM 41.9167 -87.9000 176° South 181 208 2,800  Level Chicago TRACON
07:01PM 41.8289 -87.8908 176° South 226 260 5,500 1,980 Climbing Chicago Center
07:02PM 41.7422 -87.8867 178° South 260 299 8,100 2,100 Climbing Chicago Center
07:03PM 41.6633 -87.8844 179° South 282 325 9,900 1,740 Climbing Chicago Center
07:04PM 41.5789 -87.8831 179° South 300 345 11,800 1,260 Climbing Chicago Center
07:05PM 41.4869 -87.8797 178° South 325 374 12,600 900 Climbing Chicago Center
07:06PM 41.3836 -87.8803 180° South 361 415 13,700 1,140 Climbing Chicago Center
07:07PM 41.2792 -87.8903 184° South 370 426 15,000 1,200 Climbing Chicago Center
07:08PM 41.1728 -87.8911 180° South 378 435 16,200 1,200 Climbing Chicago Center
07:09PM 41.0431 -87.8867 179° South 387 445 17,600 1,080 Climbing Chicago Center
07:11PM 40.9319 -87.8814 178° South 398 458 18,500 960 Climbing Chicago Center
07:12PM 40.8203 -87.8589 171° South 406 467 19,600 1,080 Climbing Chicago Center
07:13PM 40.7061 -87.8383 172° South 413 475 20,800 1,140 Climbing Chicago Center
07:14PM 40.5908 -87.8167 172° South 418 481 22,000 1,140 Climbing Chicago Center
07:15PM 40.4747 -87.7967 173° South 422 486 23,200 1,200 Climbing Chicago Center
07:16PM 40.3356 -87.7700 172° South 424 488 24,600 1,260 Climbing Chicago Center
07:16PM 40.2381 -87.7547 173° South 426 490 25,500 1,020 Climbing Indianapolis Center
07:18PM 40.1203 -87.7331 172° South 426 490 26,500 720 Climbing Indianapolis Center
07:19PM 40.0008 -87.7119 172° South 429 494 27,000 240 Climbing Indianapolis Center
07:20PM 39.8778 -87.6897 172° South 441 507 27,000  Level Indianapolis Center
07:21PM 39.7478 -87.6661 172° South 462 532 27,000  Level Indianapolis Center
07:22PM 39.6161 -87.6433 172° South 472 543 27,000  Level Indianapolis Center
07:23PM 39.4817 -87.6200 172° South 481 554 27,000  Level Indianapolis Center
07:24PM 39.3253 -87.5931 172° South 484 557 27,000  Level Indianapolis Center
07:25PM 39.1897 -87.5686 172° South 489 563 27,000  Level Indianapolis Center
07:26PM 39.0533 -87.5442 172° South 492 566 27,000  Level Indianapolis Center
07:27PM 38.9186 -87.5217 173° South 489 563 27,000  Level Indianapolis Center
07:28PM 38.7828 -87.4969 172° South 492 566 27,000  Level Indianapolis Center
07:29PM 38.6478 -87.4736 172° South 490 564 27,000  Level Indianapolis Center
07:30PM 38.5133 -87.4506 172° South 490 564 27,000  Level Indianapolis Center
07:31PM 38.3539 -87.4236 172° South 487 560 27,000  Level Indianapolis Center
07:32PM 38.2208 -87.4019 173° South 486 559 27,000  Level Indianapolis Center
07:33PM 38.0878 -87.3789 172° South 485 558 27,000  Level Indianapolis Center
07:34PM 37.9542 -87.3564 172° South 488 562 27,000  Level Indianapolis Center
07:35PM 37.8208 -87.3331 172° South 483 556 27,000  Level Indianapolis Center
07:36PM 37.6689 -87.3075 172° South 484 557 27,000 -660 Level Indianapolis Center
07:37PM 37.5350 -87.2847 172° South 482 555 25,700 -1,680 Descending Indianapolis Center
07:38PM 37.4644 -87.2739 173° South 495 570 24,300 -1,740 Descending Memphis Center
07:39PM 37.3367 -87.2528 173° South 494 568 23,000 -1,020 Descending Memphis Center
07:39PM 37.2569 -87.2297 167° South 461 531 22,800 -720 Descending Memphis Center
07:40PM 37.2108 -87.2133 164° South 473 544 22,300 -1,980 Descending Memphis Center
07:40PM 37.1375 -87.1956 169° South 453 521 20,800 -2,340 Descending Memphis Center
07:41PM 37.0911 -87.1792 164° South 451 519 20,000 -1,800 Descending Memphis Center
07:41PM 37.0133 -87.1561 167° South 439 505 19,000 -1,560 Descending Memphis Center
07:42PM 36.9714 -87.1450 168° South 446 513 18,500 -1,140 Descending Memphis Center
07:42PM 36.8894 -87.1197 166° South 434 499 17,900 -1,140 Descending Memphis Center
07:43PM 36.8561 -87.1106 168° South 435 501 17,400 -1,380 Descending Memphis Center
07:44PM 36.7378 -87.0533 159° South 420 483 15,900 -1,560 Descending Memphis Center
07:45PM 36.6339 -86.9878 153° Southeast 420 483 14,400 -1,560 Descending Memphis Center
07:46PM 36.5406 -86.9297 153° Southeast 398 458 12,800 -1,500 Descending Memphis Center
07:47PM 36.4558 -86.8789 154° Southeast 360 414 11,400 -1,560 Descending Memphis Center
07:48PM 36.3794 -86.8308 153° Southeast 330 380 9,800 -1,560 Descending Memphis Center
07:49PM 36.3094 -86.7900 155° Southeast 309 356 8,300 -1,620 Descending Memphis Center
07:50PM 36.2356 -86.7547 159° South 296 341 6,600 -1,620 Descending Memphis Center
07:51PM 36.1653 -86.7758 194° South 263 303 5,100 -840 Descending Memphis Center
07:52PM 36.0972 -86.8019 197° South 252 290 5,000 -780 Descending Memphis Center
07:53PM 36.0414 -86.8172 192° South 226 260 3,600 -1,200 Descending Memphis Center
07:54PM 36.0164 -86.7514 115° Southeast 163 188 2,600 -900 Descending Memphis Center
07:55PM 36.0547 -86.7086 42° Northeast 157 181 1,900 -720 Descending Memphis Center
07:56PM 36.0919 -86.6967 15° North 138 159 1,200 -660 Descending Memphis Center
07:57PM 36.1189 -86.6878 15° North 127 146 600 3,900 Descending Memphis Center
07:58PM 36.1578 -86.6681 22° Northeast 127 146 9,000 8,520 Climbing Memphis Center
08:00PM 36.1167 -86.6667 180° South  Level FlightAware Approximate
08:07PM 36.1245 -86.6782 180° South  Level Estimated
08:08PM 36.1245 -86.6782 180° South  Level Estimated
08:09PM 36.1245 -86.6782 180° South  Level Estimated
08:10PM 36.1245 -86.6782 180° South  Level Estimated
08:11PM 36.1245 -86.6782 180° South  Level Estimated
08:12PM 36.1245 -86.6782 180° South  Level Estimated